createdAt,value
2023-05-03T00:00:21.206Z,5.50
2023-05-03T00:02:48.239Z,5.50
2023-05-03T00:05:15.887Z,5.60
2023-05-03T00:07:44.745Z,5.60
2023-05-03T00:10:16.350Z,5.60
2023-05-03T00:12:44.345Z,5.70
2023-05-03T00:15:11.746Z,5.70
2023-05-03T00:17:38.788Z,5.70
2023-05-03T00:20:07.171Z,5.70
2023-05-03T00:22:34.585Z,5.70
2023-05-03T00:25:01.722Z,5.70
2023-05-03T00:27:29.073Z,5.70
2023-05-03T00:29:56.298Z,5.70
2023-05-03T00:32:23.370Z,5.60
2023-05-03T00:34:55.013Z,5.60
2023-05-03T00:37:22.729Z,5.60
2023-05-03T00:39:50.010Z,5.60
2023-05-03T00:42:16.886Z,5.60
2023-05-03T00:44:43.896Z,5.50
2023-05-03T00:47:11.358Z,5.40
2023-05-03T00:49:38.889Z,5.40
2023-05-03T00:52:06.693Z,5.30
2023-05-03T00:54:35.329Z,5.30
2023-05-03T00:57:04.633Z,5.30
2023-05-03T00:59:34.456Z,5.20
2023-05-03T01:02:01.993Z,5.20
2023-05-03T01:04:30.051Z,5.20
2023-05-03T01:07:15.410Z,5.10
2023-05-03T01:10:01.474Z,5.00
2023-05-03T01:13:01.599Z,5.00
2023-05-03T01:15:57.236Z,5.00
2023-05-03T01:18:33.562Z,4.90
2023-05-03T01:21:03.130Z,4.80
2023-05-03T01:23:46.291Z,4.80
2023-05-03T01:26:27.789Z,4.80
2023-05-03T01:28:55.806Z,4.70
2023-05-03T01:31:50.960Z,4.70
2023-05-03T01:34:34.154Z,4.70
2023-05-03T01:37:03.715Z,4.60
2023-05-03T01:39:48.526Z,4.50
2023-05-03T01:42:16.358Z,4.50
2023-05-03T01:44:45.255Z,4.50
2023-05-03T01:47:15.056Z,4.50
2023-05-03T01:49:41.947Z,4.40
2023-05-03T01:52:09.089Z,4.40
2023-05-03T01:54:36.048Z,4.30
2023-05-03T01:57:03.054Z,4.30
2023-05-03T01:59:29.885Z,4.30
2023-05-03T02:01:56.868Z,4.20
2023-05-03T02:04:23.767Z,4.20
2023-05-03T02:06:50.903Z,4.20
2023-05-03T02:09:18.711Z,4.20
2023-05-03T02:11:45.588Z,4.10
2023-05-03T02:14:12.619Z,4.10
2023-05-03T02:16:40.166Z,4.00
2023-05-03T02:19:08.021Z,4.10
2023-05-03T02:21:36.311Z,4.00
2023-05-03T02:24:03.782Z,4.00
2023-05-03T02:26:30.779Z,4.00
2023-05-03T02:28:58.144Z,4.00
2023-05-03T02:31:25.363Z,4.00
2023-05-03T02:33:52.283Z,3.90
2023-05-03T02:36:19.165Z,4.00
2023-05-03T02:38:46.027Z,4.00
2023-05-03T02:41:12.830Z,3.90
2023-05-03T02:43:39.690Z,4.00
2023-05-03T02:46:06.624Z,4.00
2023-05-03T02:48:33.472Z,4.00
2023-05-03T02:51:00.396Z,4.00
2023-05-03T02:53:27.240Z,3.90
2023-05-03T02:55:54.047Z,3.90
2023-05-03T02:58:20.946Z,3.90
2023-05-03T03:00:47.776Z,4.00
2023-05-03T03:03:14.692Z,4.00
2023-05-03T03:05:41.728Z,4.00
2023-05-03T03:08:08.538Z,4.00
2023-05-03T03:10:35.434Z,4.00
2023-05-03T03:13:02.378Z,4.00
2023-05-03T03:15:30.349Z,4.00
2023-05-03T03:17:58.262Z,4.00
2023-05-03T03:20:25.265Z,4.00
2023-05-03T03:22:52.159Z,3.90
2023-05-03T03:25:20.185Z,3.90
2023-05-03T03:27:47.037Z,3.90
2023-05-03T03:30:14.332Z,3.90
2023-05-03T03:32:41.322Z,3.90
2023-05-03T03:35:10.640Z,4.00
2023-05-03T03:37:39.140Z,3.90
2023-05-03T03:40:08.106Z,3.90
2023-05-03T03:42:35.058Z,3.90
2023-05-03T03:45:01.891Z,3.90
2023-05-03T03:47:28.756Z,3.90
2023-05-03T03:49:55.681Z,4.00
2023-05-03T03:52:23.077Z,4.00
2023-05-03T03:54:49.894Z,4.10
2023-05-03T03:57:16.733Z,4.10
2023-05-03T03:59:43.551Z,4.00
2023-05-03T04:02:10.808Z,4.10
2023-05-03T04:04:38.022Z,4.10
2023-05-03T04:07:05.028Z,4.10
2023-05-03T04:09:31.891Z,4.20
2023-05-03T04:11:58.767Z,4.20
2023-05-03T04:14:25.620Z,4.30
2023-05-03T04:16:52.539Z,4.30
2023-05-03T04:19:19.441Z,4.40
2023-05-03T04:21:46.260Z,4.50
2023-05-03T04:24:17.522Z,4.50
2023-05-03T04:26:44.990Z,4.60
2023-05-03T04:29:12.507Z,4.70
2023-05-03T04:31:39.831Z,4.70
2023-05-03T04:34:07.653Z,4.80
2023-05-03T04:36:34.584Z,4.90
2023-05-03T04:39:01.443Z,4.90
2023-05-03T04:41:28.334Z,5.00
2023-05-03T04:43:55.409Z,5.10
2023-05-03T04:46:22.289Z,5.20
2023-05-03T04:48:49.169Z,5.30
2023-05-03T04:51:16.016Z,5.40
2023-05-03T04:53:42.850Z,5.50
2023-05-03T04:56:09.694Z,5.60
2023-05-03T04:58:37.050Z,5.60
2023-05-03T05:01:03.935Z,5.60
2023-05-03T05:03:31.616Z,5.70
2023-05-03T05:05:58.898Z,5.80
2023-05-03T05:08:25.935Z,6.00
2023-05-03T05:10:52.831Z,6.20
2023-05-03T05:13:19.819Z,6.40
2023-05-03T05:15:46.730Z,6.60
2023-05-03T05:18:13.581Z,6.70
2023-05-03T05:20:40.493Z,6.90
2023-05-03T05:23:07.368Z,7.00
2023-05-03T05:25:34.222Z,7.10
2023-05-03T05:28:01.090Z,7.20
2023-05-03T05:30:27.987Z,7.40
2023-05-03T05:32:54.951Z,7.50
2023-05-03T05:35:21.868Z,7.70
2023-05-03T05:37:48.861Z,7.80
2023-05-03T05:40:15.841Z,8.00
2023-05-03T05:42:42.756Z,8.10
2023-05-03T05:45:12.511Z,8.30
2023-05-03T05:47:39.535Z,8.40
2023-05-03T05:50:16.819Z,8.60
2023-05-03T05:52:44.928Z,8.80
2023-05-03T05:55:14.607Z,8.90
2023-05-03T05:57:41.503Z,8.90
2023-05-03T06:00:14.424Z,9.10
2023-05-03T06:02:42.243Z,9.30
2023-05-03T06:05:10.788Z,9.60
2023-05-03T06:07:37.912Z,9.60
2023-05-03T06:10:05.692Z,9.80
2023-05-03T06:12:32.812Z,10.00
2023-05-03T06:15:02.824Z,10.10
2023-05-03T06:17:30.505Z,10.10
2023-05-03T06:19:58.394Z,10.30
2023-05-03T06:22:26.334Z,10.40
2023-05-03T06:24:53.183Z,10.40
2023-05-03T06:27:20.149Z,10.70
2023-05-03T06:29:48.034Z,10.70
2023-05-03T06:32:14.926Z,10.80
2023-05-03T06:34:41.788Z,10.80
2023-05-03T06:37:08.612Z,11.00
2023-05-03T06:39:35.541Z,10.90
2023-05-03T06:42:02.671Z,11.10
2023-05-03T06:44:29.511Z,11.20
2023-05-03T06:46:56.476Z,11.10
2023-05-03T06:49:23.478Z,11.20
2023-05-03T06:51:50.377Z,11.20
2023-05-03T06:54:17.309Z,11.50
2023-05-03T06:56:44.115Z,11.70
2023-05-03T06:59:10.985Z,11.90
2023-05-03T07:01:37.838Z,11.80
2023-05-03T07:04:05.081Z,12.00
2023-05-03T07:06:40.742Z,12.00
2023-05-03T07:09:11.373Z,12.30
2023-05-03T07:11:40.363Z,12.50
2023-05-03T07:14:07.287Z,12.60
2023-05-03T07:16:34.260Z,12.60
2023-05-03T07:19:01.484Z,12.70
2023-05-03T07:21:29.454Z,13.00
2023-05-03T07:23:56.307Z,13.20
2023-05-03T07:26:23.258Z,13.30
2023-05-03T07:28:50.298Z,13.40
2023-05-03T07:31:17.417Z,13.70
2023-05-03T07:33:44.477Z,13.70
2023-05-03T07:36:12.067Z,13.60
2023-05-03T07:38:39.110Z,13.40
2023-05-03T07:41:06.790Z,13.50
2023-05-03T07:43:33.828Z,13.70
2023-05-03T07:46:00.730Z,14.00
2023-05-03T07:48:27.591Z,14.20
2023-05-03T07:50:54.566Z,14.30
2023-05-03T07:53:21.511Z,14.40
2023-05-03T07:55:48.343Z,14.40
2023-05-03T07:58:15.359Z,14.30
2023-05-03T08:00:42.716Z,14.10
2023-05-03T08:03:09.755Z,14.20
2023-05-03T08:05:36.956Z,14.20
2023-05-03T08:08:05.495Z,14.20
2023-05-03T08:10:36.331Z,14.10
2023-05-03T08:13:06.061Z,14.50
2023-05-03T08:15:33.865Z,14.50
2023-05-03T08:18:01.216Z,14.50
2023-05-03T08:20:28.323Z,14.30
2023-05-03T08:22:58.200Z,14.00
2023-05-03T08:25:26.122Z,14.00
2023-05-03T08:27:53.430Z,14.20
2023-05-03T08:30:22.086Z,14.30
2023-05-03T08:32:49.151Z,14.40
2023-05-03T08:35:16.115Z,14.70
2023-05-03T08:37:44.099Z,14.70
2023-05-03T08:40:13.957Z,14.90
2023-05-03T08:42:47.089Z,15.20
2023-05-03T08:45:16.376Z,15.60
2023-05-03T08:47:45.463Z,15.50
2023-05-03T08:50:15.185Z,15.50
2023-05-03T08:52:43.491Z,15.40
2023-05-03T08:55:11.633Z,15.30
2023-05-03T08:57:39.389Z,15.60
2023-05-03T09:00:10.642Z,16.00
2023-05-03T09:02:41.388Z,16.40
2023-05-03T09:05:17.321Z,16.60
2023-05-03T09:08:05.714Z,16.00
2023-05-03T09:10:36.953Z,16.10
2023-05-03T09:13:04.154Z,16.40
2023-05-03T09:15:31.482Z,16.40
2023-05-03T09:18:16.523Z,16.30
2023-05-03T09:20:51.823Z,16.30
2023-05-03T09:23:26.271Z,16.20
2023-05-03T09:25:56.039Z,15.60
2023-05-03T09:28:23.555Z,15.10
2023-05-03T09:31:04.540Z,15.30
2023-05-03T09:33:31.456Z,15.70
2023-05-03T09:36:02.397Z,15.90
2023-05-03T09:38:36.666Z,15.90
2023-05-03T09:41:06.196Z,16.10
2023-05-03T09:43:35.509Z,16.10
2023-05-03T09:46:13.461Z,16.30
2023-05-03T09:48:41.979Z,16.50
2023-05-03T09:51:11.527Z,16.90
2023-05-03T09:53:40.266Z,17.20
2023-05-03T09:56:12.425Z,17.20
2023-05-03T09:58:42.894Z,17.10
2023-05-03T10:01:10.693Z,16.80
2023-05-03T10:03:46.757Z,17.10
2023-05-03T10:06:24.707Z,17.10
2023-05-03T10:09:23.317Z,16.60
2023-05-03T10:11:59.146Z,16.80
2023-05-03T10:14:26.536Z,17.20
2023-05-03T10:17:02.768Z,17.50
2023-05-03T10:19:52.865Z,17.50
2023-05-03T10:22:19.784Z,17.60
2023-05-03T10:25:02.437Z,17.50
2023-05-03T10:27:45.539Z,17.60
2023-05-03T10:30:31.086Z,17.70
2023-05-03T10:32:58.812Z,17.50
2023-05-03T10:35:29.770Z,17.70
2023-05-03T10:37:57.641Z,17.80
2023-05-03T10:40:41.372Z,17.60
2023-05-03T10:43:33.918Z,17.40
2023-05-03T10:46:30.651Z,17.70
2023-05-03T10:49:19.406Z,17.80
2023-05-03T10:51:46.821Z,17.90
2023-05-03T10:54:13.969Z,17.30
2023-05-03T10:56:52.506Z,16.80
2023-05-03T10:59:20.051Z,16.40
2023-05-03T11:01:53.795Z,16.20
2023-05-03T11:04:38.256Z,16.20
2023-05-03T11:07:05.153Z,16.80
2023-05-03T11:09:34.489Z,17.40
2023-05-03T11:12:07.213Z,17.40
2023-05-03T11:14:34.301Z,17.10
2023-05-03T11:17:01.998Z,17.00
2023-05-03T11:19:29.473Z,17.00
2023-05-03T11:21:57.407Z,17.30
2023-05-03T11:24:24.425Z,17.50
2023-05-03T11:26:51.407Z,17.90
2023-05-03T11:29:18.751Z,17.70
2023-05-03T11:31:45.937Z,17.50
2023-05-03T11:34:15.665Z,17.30
2023-05-03T11:36:42.766Z,16.80
2023-05-03T11:39:11.820Z,16.60
2023-05-03T11:41:38.995Z,16.90
2023-05-03T11:44:15.972Z,16.80
2023-05-03T11:46:45.946Z,16.80
2023-05-03T11:49:18.928Z,16.70
2023-05-03T11:51:49.197Z,16.90
2023-05-03T11:54:24.883Z,16.90
2023-05-03T11:56:59.588Z,17.30
2023-05-03T11:59:39.446Z,17.30
2023-05-03T12:02:13.111Z,16.90
2023-05-03T12:04:43.575Z,16.70
2023-05-03T12:07:14.669Z,16.50
2023-05-03T12:09:51.654Z,16.30
2023-05-03T12:12:31.734Z,16.20
2023-05-03T12:15:03.638Z,16.50
2023-05-03T12:17:43.995Z,16.90
2023-05-03T12:22:58.815Z,17.20
2023-05-03T12:25:28.234Z,17.20
2023-05-03T12:28:18.772Z,17.30
2023-05-03T12:30:47.307Z,17.50
2023-05-03T12:33:16.559Z,17.40
2023-05-03T12:35:47.517Z,17.30
2023-05-03T12:38:17.374Z,17.50
2023-05-03T12:40:47.008Z,17.70
2023-05-03T12:43:14.388Z,18.00
2023-05-03T12:45:44.721Z,18.20
2023-05-03T12:48:14.133Z,18.20
2023-05-03T12:50:45.163Z,18.10
2023-05-03T12:53:16.643Z,17.90
2023-05-03T12:55:44.951Z,17.60
2023-05-03T12:58:36.759Z,17.20
2023-05-03T13:03:33.804Z,16.70
2023-05-03T13:06:12.667Z,16.50
2023-05-03T13:08:48.842Z,16.50
2023-05-03T13:11:19.457Z,16.50
2023-05-03T13:13:46.675Z,16.40
2023-05-03T13:16:14.522Z,16.30
2023-05-03T13:18:42.858Z,16.40
2023-05-03T13:21:12.109Z,16.50
2023-05-03T13:23:39.021Z,16.70
2023-05-03T13:26:06.997Z,16.80
2023-05-03T13:28:33.967Z,16.70
2023-05-03T13:31:00.794Z,16.80
2023-05-03T13:33:28.763Z,16.90
2023-05-03T13:35:55.738Z,17.00
2023-05-03T13:38:22.697Z,17.10
2023-05-03T13:40:49.517Z,17.00
2023-05-03T13:43:16.361Z,17.20
2023-05-03T13:45:43.364Z,17.20
2023-05-03T13:48:19.199Z,17.30
2023-05-03T13:50:46.525Z,17.50
2023-05-03T13:53:13.500Z,17.50
2023-05-03T13:55:40.328Z,17.60
2023-05-03T13:58:07.237Z,17.80
2023-05-03T14:00:34.138Z,17.80
2023-05-03T14:03:01.381Z,17.90
2023-05-03T14:05:28.340Z,18.00
2023-05-03T14:07:55.479Z,18.10
2023-05-03T14:10:22.709Z,18.10
2023-05-03T14:12:50.080Z,18.10
2023-05-03T14:15:18.636Z,18.20
2023-05-03T14:17:48.457Z,18.00
2023-05-03T14:20:17.314Z,18.00
2023-05-03T14:22:45.634Z,17.90
2023-05-03T14:25:13.009Z,17.80
2023-05-03T14:27:40.219Z,17.80
2023-05-03T14:30:09.900Z,17.90
2023-05-03T14:32:36.809Z,17.70
2023-05-03T14:35:03.958Z,17.40
2023-05-03T14:37:31.239Z,17.00
2023-05-03T14:39:58.128Z,16.80
2023-05-03T14:42:24.984Z,16.60
2023-05-03T14:44:51.887Z,16.40
2023-05-03T14:47:18.984Z,16.10
2023-05-03T14:49:45.855Z,15.90
2023-05-03T14:52:13.161Z,15.90
2023-05-03T14:54:40.105Z,15.80
2023-05-03T14:57:07.155Z,15.70
2023-05-03T14:59:34.390Z,15.60
2023-05-03T15:02:02.176Z,15.70
2023-05-03T15:04:29.579Z,15.70
2023-05-03T15:07:03.952Z,15.70
2023-05-03T15:09:31.779Z,15.60
2023-05-03T15:11:59.233Z,15.60
2023-05-03T15:14:26.324Z,15.70
2023-05-03T15:16:53.476Z,15.90
2023-05-03T15:19:21.174Z,15.90
2023-05-03T15:21:51.969Z,15.80
2023-05-03T15:24:18.953Z,15.50
2023-05-03T15:26:47.025Z,15.40
2023-05-03T15:29:15.636Z,15.30
2023-05-03T15:31:43.325Z,15.20
2023-05-03T15:34:13.315Z,15.00
2023-05-03T15:36:40.807Z,15.10
2023-05-03T15:39:09.152Z,15.20
2023-05-03T15:41:36.101Z,15.30
2023-05-03T15:44:05.220Z,15.30
2023-05-03T15:46:34.546Z,15.20
2023-05-03T15:49:01.790Z,15.00
2023-05-03T15:51:29.293Z,14.90
2023-05-03T15:53:56.118Z,15.00
2023-05-03T15:56:23.091Z,14.80
2023-05-03T15:58:50.169Z,14.70
2023-05-03T16:01:18.634Z,14.50
2023-05-03T16:03:46.193Z,14.50
2023-05-03T16:06:13.334Z,14.50
2023-05-03T16:08:40.266Z,14.50
2023-05-03T16:11:08.028Z,14.40
2023-05-03T16:13:35.212Z,14.30
2023-05-03T16:16:03.133Z,14.20
2023-05-03T16:18:30.113Z,14.10
2023-05-03T16:20:57.029Z,14.00
2023-05-03T16:23:24.024Z,13.90
2023-05-03T16:25:51.021Z,13.80
2023-05-03T16:28:17.886Z,13.80
2023-05-03T16:30:45.920Z,13.70
2023-05-03T16:33:13.207Z,13.70
2023-05-03T16:35:40.219Z,13.50
2023-05-03T16:38:07.330Z,13.50
2023-05-03T16:40:34.184Z,13.40
2023-05-03T16:43:01.592Z,13.50
2023-05-03T16:45:28.577Z,13.50
2023-05-03T16:47:55.783Z,13.40
2023-05-03T16:50:22.844Z,13.50
2023-05-03T16:52:49.727Z,13.40
2023-05-03T16:55:24.737Z,13.30
2023-05-03T16:57:51.655Z,13.20
2023-05-03T17:00:20.895Z,13.00
2023-05-03T17:02:47.872Z,13.00
2023-05-03T17:05:15.049Z,13.00
2023-05-03T17:07:42.366Z,12.90
2023-05-03T17:10:09.887Z,12.90
2023-05-03T17:12:36.898Z,12.80
2023-05-03T17:15:04.600Z,12.80
2023-05-03T17:17:32.688Z,12.80
2023-05-03T17:19:59.755Z,12.70
2023-05-03T17:22:26.636Z,12.60
2023-05-03T17:24:55.319Z,12.60
2023-05-03T17:27:24.188Z,12.50
2023-05-03T17:29:54.105Z,12.50
2023-05-03T17:32:21.287Z,12.50
2023-05-03T17:34:48.112Z,12.40
2023-05-03T17:37:14.942Z,12.30
2023-05-03T17:39:41.963Z,12.30
2023-05-03T17:42:09.339Z,12.30
2023-05-03T17:44:36.196Z,12.30
2023-05-03T17:47:03.634Z,12.40
2023-05-03T17:49:33.740Z,12.40
2023-05-03T17:52:00.717Z,12.40
2023-05-03T17:54:30.881Z,12.50
2023-05-03T17:56:57.756Z,12.50
2023-05-03T17:59:24.572Z,12.40
2023-05-03T18:01:51.474Z,12.30
2023-05-03T18:04:18.315Z,12.30
2023-05-03T18:06:45.639Z,12.20
2023-05-03T18:09:13.270Z,12.20
2023-05-03T18:11:41.294Z,12.20
2023-05-03T18:14:10.486Z,12.20
2023-05-03T18:16:37.695Z,12.20
2023-05-03T18:19:04.642Z,12.10
2023-05-03T18:21:31.510Z,12.10
2023-05-03T18:23:58.492Z,12.00
2023-05-03T18:26:25.534Z,12.00
2023-05-03T18:28:53.643Z,11.90
2023-05-03T18:31:21.500Z,11.90
2023-05-03T18:33:48.961Z,11.80
2023-05-03T18:36:17.474Z,11.80
2023-05-03T18:38:46.730Z,11.80
2023-05-03T18:41:14.892Z,11.80
2023-05-03T18:43:47.130Z,11.90
2023-05-03T18:46:19.319Z,11.90
2023-05-03T18:48:47.792Z,11.80
2023-05-03T18:51:15.028Z,11.80
2023-05-03T18:53:43.456Z,11.90
2023-05-03T18:56:11.601Z,11.80
2023-05-03T18:58:38.624Z,11.80
2023-05-03T19:01:05.960Z,11.90
2023-05-03T19:03:33.403Z,11.90
2023-05-03T19:06:07.315Z,11.90
2023-05-03T19:08:35.443Z,11.90
2023-05-03T19:11:10.922Z,11.90
2023-05-03T19:13:37.973Z,11.80
2023-05-03T19:16:05.532Z,11.70
2023-05-03T19:18:32.589Z,11.60
2023-05-03T19:21:00.198Z,11.50
2023-05-03T19:23:27.486Z,11.50
2023-05-03T19:25:54.376Z,11.50
2023-05-03T19:28:21.366Z,11.50
2023-05-03T19:30:51.681Z,11.40
2023-05-03T19:33:20.346Z,11.30
2023-05-03T19:35:47.758Z,11.20
2023-05-03T19:38:15.041Z,11.20
2023-05-03T19:40:54.594Z,11.20
2023-05-03T19:43:21.505Z,11.10
2023-05-03T19:45:48.456Z,11.10
2023-05-03T19:48:17.361Z,11.10
2023-05-03T19:50:45.015Z,11.00
2023-05-03T19:53:12.690Z,11.00
2023-05-03T19:55:39.820Z,11.00
2023-05-03T19:58:07.409Z,11.00
2023-05-03T20:00:34.282Z,10.90
2023-05-03T20:03:01.162Z,10.90
2023-05-03T20:05:28.204Z,10.90
2023-05-03T20:07:55.198Z,10.90
2023-05-03T20:10:22.468Z,10.80
2023-05-03T20:12:49.318Z,10.80
2023-05-03T20:15:16.321Z,10.70
2023-05-03T20:17:43.236Z,10.70
2023-05-03T20:20:11.260Z,10.70
2023-05-03T20:22:38.235Z,10.70
2023-05-03T20:25:06.241Z,10.70
2023-05-03T20:27:33.143Z,10.70
2023-05-03T20:30:00.181Z,10.60
2023-05-03T20:32:27.162Z,10.60
2023-05-03T20:34:54.071Z,10.50
2023-05-03T20:37:20.929Z,10.60
2023-05-03T20:39:47.835Z,10.50
2023-05-03T20:42:14.670Z,10.50
2023-05-03T20:44:41.746Z,10.40
2023-05-03T20:47:09.190Z,10.30
2023-05-03T20:49:37.049Z,10.20
2023-05-03T20:52:04.212Z,10.10
2023-05-03T20:54:31.077Z,9.80
2023-05-03T20:56:58.273Z,9.70
2023-05-03T20:59:27.854Z,9.60
2023-05-03T21:01:55.842Z,9.60
2023-05-03T21:04:25.950Z,9.50
2023-05-03T21:06:52.943Z,9.30
2023-05-03T21:09:20.016Z,9.20
2023-05-03T21:11:46.865Z,9.00
2023-05-03T21:14:14.461Z,8.90
2023-05-03T21:16:41.419Z,8.70
2023-05-03T21:19:08.411Z,8.60
2023-05-03T21:21:35.308Z,8.50
2023-05-03T21:24:02.356Z,8.50
2023-05-03T21:26:32.755Z,8.50
2023-05-03T21:29:00.332Z,8.50
2023-05-03T21:31:27.451Z,8.50
2023-05-03T21:33:54.347Z,8.50
2023-05-03T21:36:21.331Z,8.50
2023-05-03T21:38:50.938Z,8.50
2023-05-03T21:41:19.468Z,8.50
2023-05-03T21:43:46.730Z,8.50
2023-05-03T21:46:14.002Z,8.50
2023-05-03T21:48:41.066Z,8.50
2023-05-03T21:51:08.804Z,8.30
2023-05-03T21:53:35.796Z,8.20
2023-05-03T21:56:02.713Z,8.10
2023-05-03T21:58:29.744Z,8.10
2023-05-03T22:00:56.601Z,8.10
2023-05-03T22:03:23.541Z,8.10
2023-05-03T22:05:51.463Z,8.10
2023-05-03T22:08:18.686Z,8.10
2023-05-03T22:10:46.386Z,8.10
2023-05-03T22:13:13.455Z,8.00
2023-05-03T22:15:40.372Z,8.10
2023-05-03T22:18:07.525Z,8.10
2023-05-03T22:20:34.580Z,8.00
2023-05-03T22:23:01.463Z,7.90
2023-05-03T22:25:32.092Z,7.80
2023-05-03T22:27:59.668Z,7.70
2023-05-03T22:30:27.630Z,7.80
2023-05-03T22:32:54.592Z,7.70
2023-05-03T22:35:21.717Z,7.60
2023-05-03T22:37:48.664Z,7.70
2023-05-03T22:40:15.698Z,7.70
2023-05-03T22:42:42.659Z,7.70
2023-05-03T22:45:10.350Z,7.70
2023-05-03T22:47:37.417Z,7.70
2023-05-03T22:50:06.147Z,7.70
2023-05-03T22:52:33.265Z,7.70
2023-05-03T22:55:01.354Z,7.60
2023-05-03T22:57:28.437Z,7.50
2023-05-03T22:59:55.418Z,7.40
2023-05-03T23:02:22.529Z,7.40
2023-05-03T23:04:49.411Z,7.40
2023-05-03T23:07:16.311Z,7.20
2023-05-03T23:09:43.162Z,7.20
2023-05-03T23:12:09.999Z,7.20
2023-05-03T23:14:38.973Z,7.10
2023-05-03T23:17:05.853Z,7.00
2023-05-03T23:19:33.813Z,7.00
2023-05-03T23:22:00.642Z,7.00
2023-05-03T23:24:27.460Z,6.90
2023-05-03T23:26:57.340Z,6.90
2023-05-03T23:29:24.599Z,6.90
2023-05-03T23:31:51.978Z,6.80
2023-05-03T23:34:20.192Z,6.80
2023-05-03T23:36:47.037Z,6.70
2023-05-03T23:39:13.934Z,6.70
2023-05-03T23:41:41.022Z,6.60
2023-05-03T23:44:08.365Z,6.50
2023-05-03T23:46:35.714Z,6.40
2023-05-03T23:49:02.751Z,6.40
2023-05-03T23:51:29.588Z,6.40
2023-05-03T23:53:56.629Z,6.30
2023-05-03T23:56:23.813Z,6.20
2023-05-03T23:58:50.644Z,6.20
